createdAt,value
2018-03-29T00:00:35.143Z,7.50
2018-03-29T00:01:35.133Z,7.20
2018-03-29T00:02:35.224Z,7.90
2018-03-29T00:03:35.115Z,7.50
2018-03-29T00:04:35.109Z,7.40
2018-03-29T00:05:35.097Z,7.70
2018-03-29T00:06:35.092Z,7.30
2018-03-29T00:07:35.084Z,7.40
2018-03-29T00:08:35.072Z,6.80
2018-03-29T00:09:35.064Z,7.50
2018-03-29T00:10:35.054Z,6.70
2018-03-29T00:11:35.045Z,7.10
2018-03-29T00:12:35.042Z,6.50
2018-03-29T00:13:35.027Z,6.30
2018-03-29T00:14:35.017Z,6.30
2018-03-29T00:15:35.009Z,6.80
2018-03-29T00:16:35.000Z,6.00
2018-03-29T00:17:34.990Z,6.00
2018-03-29T00:18:34.983Z,6.90
2018-03-29T00:19:34.974Z,7.10
2018-03-29T00:20:35.066Z,7.00
2018-03-29T00:21:34.956Z,6.70
2018-03-29T00:22:34.947Z,7.00
2018-03-29T00:23:34.939Z,7.60
2018-03-29T00:24:34.983Z,7.10
2018-03-29T00:25:34.924Z,6.40
2018-03-29T00:26:34.912Z,7.00
2018-03-29T00:27:34.913Z,7.20
2018-03-29T00:28:34.895Z,7.40
2018-03-29T00:29:34.885Z,7.40
2018-03-29T00:30:34.877Z,7.20
2018-03-29T00:31:34.868Z,6.30
2018-03-29T00:32:34.859Z,6.40
2018-03-29T00:33:34.852Z,7.40
2018-03-29T00:34:34.842Z,7.40
2018-03-29T00:35:34.833Z,7.60
2018-03-29T00:36:34.825Z,7.40
2018-03-29T00:37:34.815Z,7.20
2018-03-29T00:38:34.839Z,7.90
2018-03-29T00:39:34.797Z,7.60
2018-03-29T00:40:34.790Z,7.20
2018-03-29T00:41:34.782Z,8.80
2018-03-29T00:42:34.772Z,6.50
2018-03-29T00:43:34.764Z,7.20
2018-03-29T00:44:34.754Z,7.30
2018-03-29T00:45:34.746Z,7.20
2018-03-29T00:46:34.737Z,7.20
2018-03-29T00:47:34.729Z,6.90
2018-03-29T00:48:34.720Z,7.10
2018-03-29T00:49:34.710Z,7.00
2018-03-29T00:50:34.702Z,7.20
2018-03-29T00:51:34.694Z,7.60
2018-03-29T00:52:34.686Z,7.30
2018-03-29T00:53:34.678Z,7.50
2018-03-29T00:54:34.668Z,7.50
2018-03-29T00:55:34.660Z,7.40
2018-03-29T00:56:34.652Z,6.90
2018-03-29T00:57:34.645Z,7.80
2018-03-29T00:58:34.634Z,8.00
2018-03-29T00:59:34.626Z,7.80
2018-03-29T01:00:34.617Z,7.90
2018-03-29T01:01:34.610Z,7.80
2018-03-29T01:02:34.604Z,7.50
2018-03-29T01:03:34.601Z,7.80
2018-03-29T01:04:34.584Z,6.70
2018-03-29T01:05:34.574Z,7.70
2018-03-29T01:06:34.565Z,7.60
2018-03-29T01:07:34.557Z,7.40
2018-03-29T01:08:34.548Z,7.80
2018-03-29T01:09:34.545Z,8.10
2018-03-29T01:10:34.545Z,8.20
2018-03-29T01:11:34.523Z,8.50
2018-03-29T01:12:34.513Z,7.60
2018-03-29T01:13:34.505Z,7.00
2018-03-29T01:14:34.504Z,6.90
2018-03-29T01:15:34.488Z,8.00
2018-03-29T01:16:34.480Z,7.70
2018-03-29T01:17:34.470Z,7.90
2018-03-29T01:18:34.462Z,7.90
2018-03-29T01:19:34.454Z,9.00
2018-03-29T01:20:34.446Z,9.00
2018-03-29T01:21:34.436Z,8.60
2018-03-29T01:22:34.428Z,8.40
2018-03-29T01:23:34.419Z,8.00
2018-03-29T01:24:34.412Z,8.00
2018-03-29T01:25:34.402Z,8.60
2018-03-29T01:26:34.645Z,8.30
2018-03-29T01:27:34.385Z,8.20
2018-03-29T01:28:34.377Z,7.50
2018-03-29T01:29:34.370Z,8.20
2018-03-29T01:30:34.360Z,9.90
2018-03-29T01:31:34.352Z,8.50
2018-03-29T01:32:34.343Z,8.30
2018-03-29T01:33:34.333Z,9.20
2018-03-29T01:34:34.327Z,8.50
2018-03-29T01:35:34.316Z,9.20
2018-03-29T01:36:34.310Z,8.20
2018-03-29T01:37:34.300Z,8.90
2018-03-29T01:38:34.293Z,8.80
2018-03-29T01:39:34.284Z,8.40
2018-03-29T01:40:34.275Z,9.50
2018-03-29T01:41:34.267Z,9.20
2018-03-29T01:42:34.257Z,9.20
2018-03-29T01:43:34.250Z,9.20
2018-03-29T01:44:34.241Z,9.60
2018-03-29T01:45:34.232Z,10.00
2018-03-29T01:46:34.226Z,9.40
2018-03-29T01:47:34.220Z,10.40
2018-03-29T01:48:34.207Z,10.30
2018-03-29T01:49:34.198Z,9.20
2018-03-29T01:50:34.189Z,9.70
2018-03-29T01:51:34.182Z,9.10
2018-03-29T01:52:34.174Z,10.30
2018-03-29T01:53:34.164Z,9.80
2018-03-29T01:54:34.155Z,11.30
2018-03-29T01:55:34.145Z,10.40
2018-03-29T01:56:34.138Z,10.80
2018-03-29T01:57:34.130Z,11.90
2018-03-29T01:58:34.121Z,10.90
2018-03-29T01:59:34.113Z,10.10
2018-03-29T02:00:34.104Z,10.80
2018-03-29T02:01:34.096Z,10.90
2018-03-29T02:02:34.087Z,11.10
2018-03-29T02:03:34.079Z,11.50
2018-03-29T02:04:34.071Z,12.00
2018-03-29T02:05:34.060Z,10.80
2018-03-29T02:06:34.053Z,11.60
2018-03-29T02:07:34.045Z,11.80
2018-03-29T02:08:34.042Z,14.20
2018-03-29T02:09:34.028Z,11.90
2018-03-29T02:10:34.021Z,12.40
2018-03-29T02:11:34.011Z,12.50
2018-03-29T02:12:34.003Z,14.10
2018-03-29T02:13:33.995Z,11.70
2018-03-29T02:14:33.986Z,11.80
2018-03-29T02:15:33.991Z,15.10
2018-03-29T02:16:33.970Z,14.00
2018-03-29T02:17:33.964Z,12.30
2018-03-29T02:18:33.953Z,12.90
2018-03-29T02:19:33.945Z,12.40
2018-03-29T02:20:33.936Z,12.40
2018-03-29T02:21:33.927Z,13.50
2018-03-29T02:22:33.919Z,12.80
2018-03-29T02:23:33.911Z,13.40
2018-03-29T02:24:33.906Z,13.30
2018-03-29T02:25:33.895Z,11.50
2018-03-29T02:26:33.886Z,12.80
2018-03-29T02:27:33.877Z,13.60
2018-03-29T02:28:33.868Z,13.10
2018-03-29T02:29:33.860Z,13.10
2018-03-29T02:30:33.856Z,13.40
2018-03-29T02:31:33.843Z,13.70
2018-03-29T02:32:33.845Z,13.80
2018-03-29T02:33:33.829Z,13.70
2018-03-29T02:34:33.820Z,13.00
2018-03-29T02:35:33.812Z,13.70
2018-03-29T02:36:33.802Z,12.30
2018-03-29T02:37:33.793Z,12.30
2018-03-29T02:38:33.785Z,13.20
2018-03-29T02:39:33.777Z,14.00
2018-03-29T02:40:33.771Z,13.90
2018-03-29T02:41:33.766Z,13.80
2018-03-29T02:42:33.753Z,14.30
2018-03-29T02:43:33.745Z,13.30
2018-03-29T02:44:33.735Z,12.60
2018-03-29T02:45:33.726Z,13.80
2018-03-29T02:46:33.718Z,12.60
2018-03-29T02:47:33.713Z,13.70
2018-03-29T02:48:33.713Z,12.70
2018-03-29T02:49:33.704Z,12.90
2018-03-29T02:50:33.684Z,12.30
2018-03-29T02:51:33.675Z,13.40
2018-03-29T02:52:33.667Z,13.30
2018-03-29T02:53:33.667Z,12.20
2018-03-29T02:54:33.666Z,13.00
2018-03-29T02:55:33.646Z,12.50
2018-03-29T02:56:33.634Z,12.70
2018-03-29T02:57:33.624Z,12.50
2018-03-29T02:58:33.619Z,12.80
2018-03-29T02:59:33.607Z,11.10
2018-03-29T03:00:33.600Z,13.10
2018-03-29T03:01:33.589Z,12.80
2018-03-29T03:02:33.583Z,13.20
2018-03-29T03:03:33.574Z,12.60
2018-03-29T03:04:33.570Z,12.80
2018-03-29T03:05:33.556Z,12.90
2018-03-29T03:06:33.549Z,13.60
2018-03-29T03:07:33.541Z,13.00
2018-03-29T03:08:33.532Z,12.30
2018-03-29T03:09:33.523Z,13.70
2018-03-29T03:10:33.514Z,14.40
2018-03-29T03:11:33.508Z,12.90
2018-03-29T03:12:33.503Z,12.80
2018-03-29T03:13:33.490Z,13.20
2018-03-29T03:14:33.481Z,14.20
2018-03-29T03:15:33.474Z,13.30
2018-03-29T03:16:33.465Z,14.10
2018-03-29T03:17:33.457Z,13.30
2018-03-29T03:18:33.448Z,13.70
2018-03-29T03:19:33.438Z,12.20
2018-03-29T03:20:33.432Z,13.10
2018-03-29T03:21:33.423Z,13.50
2018-03-29T03:22:33.414Z,12.40
2018-03-29T03:23:33.406Z,11.90
2018-03-29T03:24:33.403Z,12.50
2018-03-29T03:25:33.389Z,12.10
2018-03-29T03:26:33.382Z,12.80
2018-03-29T03:27:33.374Z,11.70
2018-03-29T03:28:33.364Z,13.00
2018-03-29T03:29:33.355Z,11.90
2018-03-29T03:30:33.353Z,13.60
2018-03-29T03:31:33.341Z,12.60
2018-03-29T03:32:33.331Z,12.30
2018-03-29T03:33:33.327Z,14.30
2018-03-29T03:34:33.326Z,12.40
2018-03-29T03:35:33.307Z,11.60
2018-03-29T03:36:33.298Z,12.40
2018-03-29T03:37:33.288Z,12.40
2018-03-29T03:38:33.282Z,11.80
2018-03-29T03:39:33.272Z,11.80
2018-03-29T03:40:33.264Z,11.90
2018-03-29T03:41:33.256Z,12.40
2018-03-29T03:42:33.248Z,11.70
2018-03-29T03:43:33.239Z,9.70
2018-03-29T03:44:33.231Z,12.70
2018-03-29T03:45:33.222Z,11.50
2018-03-29T03:46:33.214Z,12.20
2018-03-29T03:47:33.214Z,13.10
2018-03-29T03:48:33.206Z,14.80
2018-03-29T03:49:33.197Z,14.30
2018-03-29T03:50:33.182Z,13.30
2018-03-29T03:51:33.172Z,14.20
2018-03-29T03:52:33.164Z,14.70
2018-03-29T03:53:33.155Z,15.50
2018-03-29T03:54:33.147Z,13.70
2018-03-29T03:55:33.139Z,14.00
2018-03-29T03:56:33.139Z,15.60
2018-03-29T03:57:33.122Z,13.80
2018-03-29T03:58:33.114Z,14.70
2018-03-29T03:59:33.108Z,15.50
2018-03-29T04:00:33.097Z,13.80
2018-03-29T04:01:33.089Z,17.30
2018-03-29T04:02:33.081Z,18.40
2018-03-29T04:03:33.074Z,17.00
2018-03-29T04:04:33.065Z,15.00
2018-03-29T04:05:33.055Z,15.00
2018-03-29T04:06:33.048Z,16.90
2018-03-29T04:07:33.041Z,18.80
2018-03-29T04:08:33.032Z,15.90
2018-03-29T04:09:33.022Z,15.50
2018-03-29T04:10:33.015Z,15.50
2018-03-29T04:11:33.017Z,14.20
2018-03-29T04:12:32.998Z,15.10
2018-03-29T04:13:32.998Z,15.00
2018-03-29T04:14:32.985Z,15.40
2018-03-29T04:15:32.974Z,15.20
2018-03-29T04:16:32.966Z,15.00
2018-03-29T04:17:32.956Z,15.80
2018-03-29T04:18:32.950Z,15.70
2018-03-29T04:19:32.980Z,13.90
2018-03-29T04:20:32.932Z,14.10
2018-03-29T04:21:32.925Z,14.30
2018-03-29T04:22:32.916Z,14.10
2018-03-29T04:23:32.908Z,15.30
2018-03-29T04:24:32.901Z,14.00
2018-03-29T04:25:32.892Z,12.30
2018-03-29T04:26:32.883Z,14.20
2018-03-29T04:27:32.874Z,13.90
2018-03-29T04:28:32.866Z,15.00
2018-03-29T04:29:32.856Z,14.70
2018-03-29T04:30:32.857Z,15.00
2018-03-29T04:31:32.840Z,15.20
2018-03-29T04:32:32.831Z,15.90
2018-03-29T04:33:32.829Z,15.10
2018-03-29T04:34:32.830Z,13.90
2018-03-29T04:35:32.804Z,14.60
2018-03-29T04:36:32.796Z,14.80
2018-03-29T04:37:32.786Z,13.40
2018-03-29T04:38:32.777Z,14.90
2018-03-29T04:39:32.774Z,14.30
2018-03-29T04:40:32.778Z,15.10
2018-03-29T04:41:32.752Z,14.70
2018-03-29T04:42:32.744Z,16.10
2018-03-29T04:43:32.734Z,15.90
2018-03-29T04:44:32.726Z,15.70
2018-03-29T04:45:32.714Z,14.50
2018-03-29T04:46:32.707Z,15.30
2018-03-29T04:47:32.698Z,16.10
2018-03-29T04:48:32.689Z,16.50
2018-03-29T04:49:32.680Z,16.40
2018-03-29T04:50:32.670Z,16.40
2018-03-29T04:51:32.660Z,17.60
2018-03-29T04:52:32.652Z,16.50
2018-03-29T04:53:32.642Z,17.70
2018-03-29T04:54:32.634Z,16.70
2018-03-29T04:55:32.657Z,16.50
2018-03-29T04:56:32.616Z,16.90
2018-03-29T04:57:32.606Z,15.00
2018-03-29T04:58:32.601Z,18.40
2018-03-29T04:59:32.588Z,16.60
2018-03-29T05:00:32.580Z,15.70
2018-03-29T05:01:32.570Z,17.90
2018-03-29T05:02:32.629Z,17.50
2018-03-29T05:03:32.550Z,16.20
2018-03-29T05:04:32.543Z,20.10
2018-03-29T05:05:32.532Z,17.70
2018-03-29T05:06:32.525Z,16.80
2018-03-29T05:07:32.559Z,17.90
2018-03-29T05:08:32.507Z,18.20
2018-03-29T05:09:32.496Z,14.40
2018-03-29T05:10:32.488Z,16.80
2018-03-29T05:11:32.480Z,17.50
2018-03-29T05:12:32.473Z,18.00
2018-03-29T05:13:32.460Z,17.40
2018-03-29T05:14:32.458Z,17.60
2018-03-29T05:15:32.443Z,16.90
2018-03-29T05:16:32.434Z,18.10
2018-03-29T05:17:32.424Z,18.40
2018-03-29T05:18:32.415Z,18.90
2018-03-29T05:19:32.415Z,21.10
2018-03-29T05:20:32.397Z,20.20
2018-03-29T05:21:32.387Z,20.00
2018-03-29T05:22:32.379Z,18.40
2018-03-29T05:23:32.371Z,19.80
2018-03-29T05:24:32.362Z,19.80
2018-03-29T05:25:32.352Z,21.40
2018-03-29T05:26:32.343Z,19.10
2018-03-29T05:27:32.334Z,20.10
2018-03-29T05:28:32.324Z,19.20
2018-03-29T05:29:32.316Z,21.20
2018-03-29T05:30:32.308Z,19.80
2018-03-29T05:31:32.300Z,21.30
2018-03-29T05:32:32.298Z,19.00
2018-03-29T05:33:32.284Z,19.70
2018-03-29T05:34:32.273Z,21.00
2018-03-29T05:35:32.263Z,20.20
2018-03-29T05:36:32.256Z,22.00
2018-03-29T05:37:32.246Z,21.30
2018-03-29T05:38:32.239Z,23.40
2018-03-29T05:39:32.230Z,21.20
2018-03-29T05:40:32.221Z,20.60
2018-03-29T05:41:32.212Z,22.50
2018-03-29T05:42:32.204Z,23.50
2018-03-29T05:43:32.197Z,21.20
2018-03-29T05:44:32.286Z,22.60
2018-03-29T05:45:32.177Z,20.40
2018-03-29T05:46:32.169Z,20.10
2018-03-29T05:47:32.161Z,22.50
2018-03-29T05:48:32.152Z,20.70
2018-03-29T05:49:32.143Z,23.90
2018-03-29T05:50:32.385Z,23.80
2018-03-29T05:51:32.126Z,26.00
2018-03-29T05:52:32.121Z,24.10
2018-03-29T05:53:32.108Z,26.50
2018-03-29T05:54:32.099Z,27.20
2018-03-29T05:55:32.091Z,25.70
2018-03-29T05:56:32.083Z,26.50
2018-03-29T05:57:32.076Z,27.90
2018-03-29T05:58:32.065Z,27.90
2018-03-29T05:59:32.056Z,27.20
2018-03-29T07:17:00.080Z,43.30
2018-03-29T07:18:00.073Z,43.20
2018-03-29T07:19:00.066Z,40.20
2018-03-29T07:20:00.058Z,41.30
2018-03-29T07:21:00.053Z,43.30
2018-03-29T07:22:00.053Z,43.70
2018-03-29T07:23:00.037Z,44.80
2018-03-29T07:24:00.028Z,43.10
2018-03-29T07:26:15.559Z,43.20
2018-03-29T07:39:04.694Z,41.20
2018-03-29T07:40:04.586Z,41.60
2018-03-29T07:41:04.582Z,42.10
2018-03-29T07:42:04.570Z,43.80
2018-03-29T07:43:04.565Z,41.30
2018-03-29T07:44:04.555Z,39.30
2018-03-29T07:45:04.550Z,43.80
2018-03-29T07:46:04.540Z,38.60
2018-03-29T07:47:04.557Z,40.30
2018-03-29T07:48:04.526Z,39.20
2018-03-29T07:49:04.813Z,39.90
2018-03-29T07:50:04.512Z,40.60
2018-03-29T07:51:04.504Z,41.60
2018-03-29T07:54:35.188Z,40.80
2018-03-29T07:55:35.175Z,41.60
2018-03-29T07:57:32.907Z,37.20
2018-03-29T07:59:50.067Z,41.00
2018-03-29T08:00:50.061Z,42.00
2018-03-29T08:01:50.054Z,41.10
2018-03-29T08:02:50.053Z,41.20
2018-03-29T08:03:50.057Z,42.50
2018-03-29T08:04:50.032Z,39.00
2018-03-29T08:05:50.027Z,40.00
2018-03-29T08:06:50.018Z,38.70
2018-03-29T08:07:50.010Z,37.20
2018-03-29T08:08:50.003Z,37.50
2018-03-29T08:09:50.045Z,37.90
2018-03-29T08:10:49.998Z,37.30
2018-03-29T08:15:38.245Z,37.70
2018-03-29T08:20:47.092Z,34.40
2018-03-29T08:21:47.133Z,33.20
2018-03-29T08:22:47.074Z,33.40
2018-03-29T08:23:47.074Z,33.60
2018-03-29T08:27:12.739Z,33.90
2018-03-29T08:28:12.738Z,33.50
2018-03-29T08:29:12.726Z,32.60
2018-03-29T08:30:12.719Z,34.40
2018-03-29T08:31:12.716Z,34.10
2018-03-29T08:32:12.706Z,36.30
2018-03-29T08:33:12.700Z,35.80
2018-03-29T08:34:12.693Z,35.40
2018-03-29T08:35:12.687Z,34.70
2018-03-29T08:36:12.680Z,32.30
2018-03-29T08:41:21.628Z,35.70
2018-03-29T08:42:21.620Z,33.60
2018-03-29T08:43:21.613Z,32.10
2018-03-29T08:44:21.607Z,31.80
2018-03-29T08:45:21.603Z,32.90
2018-03-29T08:46:21.597Z,34.90
2018-03-29T09:54:58.222Z,35.20
2018-03-29T09:55:58.211Z,29.40
2018-03-29T09:56:58.206Z,34.90
2018-03-29T09:57:58.195Z,33.50
2018-03-29T09:58:58.187Z,34.40
2018-03-29T09:59:58.183Z,36.30
2018-03-29T10:00:58.181Z,34.00
2018-03-29T10:01:58.181Z,34.50
2018-03-29T10:02:58.158Z,35.10
2018-03-29T10:03:58.151Z,34.50
2018-03-29T10:04:58.146Z,31.40
2018-03-29T10:05:58.137Z,31.40
2018-03-29T10:06:58.131Z,32.20
2018-03-29T10:07:58.125Z,34.30
2018-03-29T10:08:58.129Z,29.60
2018-03-29T10:09:58.112Z,32.30
2018-03-29T10:10:58.107Z,31.20
2018-03-29T10:11:58.100Z,32.30
2018-03-29T10:12:59.407Z,35.10
2018-03-29T10:13:58.088Z,31.90
2018-03-29T10:14:58.084Z,32.90
2018-03-29T10:15:58.183Z,32.60
2018-03-29T10:17:01.914Z,32.50
2018-03-29T10:17:58.067Z,31.10
2018-03-29T10:18:58.063Z,32.20
2018-03-29T10:19:58.057Z,31.70
2018-03-29T10:21:00.677Z,31.10
2018-03-29T10:21:58.045Z,32.80
2018-03-29T10:23:58.036Z,33.30
2018-03-29T10:24:58.039Z,34.00
2018-03-29T10:25:58.047Z,30.70
2018-03-29T10:33:37.678Z,32.20
2018-03-29T10:34:37.679Z,28.30
2018-03-29T10:35:37.668Z,29.30
2018-03-29T10:36:37.664Z,32.70
2018-03-29T10:37:37.666Z,31.80
2018-03-29T10:38:37.654Z,31.40
2018-03-29T10:39:37.652Z,29.60
2018-03-29T10:40:37.646Z,33.80
2018-03-29T10:41:37.642Z,33.30
2018-03-29T10:42:37.637Z,33.00
2018-03-29T10:43:37.634Z,30.20
2018-03-29T10:44:37.628Z,31.80
2018-03-29T10:45:37.624Z,28.50
2018-03-29T10:46:37.658Z,32.00
2018-03-29T10:47:37.615Z,28.00
2018-03-29T10:48:37.611Z,28.20
2018-03-29T10:49:37.606Z,31.60
2018-03-29T10:50:37.600Z,32.20
2018-03-29T10:51:37.595Z,31.20
2018-03-29T10:52:37.590Z,33.10
2018-03-29T10:53:37.591Z,32.30
2018-03-29T10:54:37.580Z,32.90
2018-03-29T10:55:37.575Z,31.90
2018-03-29T10:56:37.569Z,32.10
2018-03-29T10:57:37.815Z,33.00
2018-03-29T10:58:37.558Z,34.30
2018-03-29T10:59:37.562Z,30.80
2018-03-29T11:00:37.549Z,33.50
2018-03-29T11:01:37.545Z,32.50
2018-03-29T11:02:37.539Z,29.60
2018-03-29T11:03:37.536Z,30.80
2018-03-29T11:04:37.531Z,32.80
2018-03-29T11:05:37.526Z,31.90
2018-03-29T11:07:20.134Z,30.60
2018-03-29T11:08:19.928Z,32.50
2018-03-29T11:09:20.022Z,35.00
2018-03-29T11:10:19.970Z,31.70
2018-03-29T11:11:19.914Z,32.80
2018-03-29T11:12:19.917Z,32.70
2018-03-29T11:13:19.907Z,31.30
2018-03-29T11:14:19.901Z,29.00
2018-03-29T11:15:19.898Z,1999.90
2018-03-29T11:16:22.921Z,1999.90
2018-03-29T11:17:22.512Z,1999.90
2018-03-29T11:19:19.882Z,1166.50
2018-03-29T11:20:21.295Z,941.20
2018-03-29T11:23:04.735Z,1075.50
2018-03-29T11:24:04.728Z,912.40
2018-03-29T11:25:04.750Z,981.90
2018-03-29T11:27:04.723Z,1999.90
2018-03-29T11:28:04.718Z,1999.90
2018-03-29T11:29:04.707Z,1999.90
2018-03-29T11:30:04.703Z,1836.30
2018-03-29T11:31:05.509Z,213.20
2018-03-29T11:32:04.695Z,1398.80
2018-03-29T11:33:04.691Z,1999.90
2018-03-29T11:35:04.684Z,1262.80
2018-03-29T11:36:04.689Z,1999.90
2018-03-29T11:37:04.674Z,974.40
2018-03-29T11:38:04.669Z,1999.90
2018-03-29T11:39:04.666Z,1999.90
2018-03-29T11:42:24.594Z,1999.90
2018-03-29T11:43:24.600Z,1999.90
2018-03-29T11:44:24.592Z,1999.90
2018-03-29T11:45:24.574Z,1999.90
2018-03-29T11:46:24.575Z,1999.90
2018-03-29T11:50:47.695Z,1999.90
2018-03-29T11:51:47.686Z,319.40
2018-03-29T11:53:35.106Z,1999.90
2018-03-29T11:54:35.102Z,1999.90
2018-03-29T11:58:44.884Z,1999.90
2018-03-29T11:59:44.780Z,1999.90
2018-03-29T12:00:44.778Z,1191.30
2018-03-29T12:01:44.773Z,257.30
2018-03-29T12:02:44.779Z,1999.90
2018-03-29T12:03:44.766Z,1999.90
2018-03-29T12:04:44.763Z,1999.90
2018-03-29T12:05:44.763Z,1999.90
2018-03-29T12:07:42.196Z,1999.90
2018-03-29T12:08:42.192Z,1999.90
2018-03-29T12:09:42.190Z,1999.90
2018-03-29T12:10:42.492Z,678.90
2018-03-29T12:14:57.968Z,1999.90
2018-03-29T12:15:58.064Z,1999.90
2018-03-29T12:16:57.970Z,1999.90
2018-03-29T12:17:57.963Z,1999.90
2018-03-29T12:18:57.962Z,1999.90
2018-03-29T12:19:57.953Z,1999.90
2018-03-29T12:20:57.950Z,1999.90
2018-03-29T12:21:57.949Z,1999.90
2018-03-29T12:22:57.945Z,1999.90
2018-03-29T12:23:57.946Z,1999.90
2018-03-29T12:24:57.947Z,1999.90
2018-03-29T12:25:57.945Z,1999.90
2018-03-29T12:26:57.935Z,1999.90
2018-03-29T12:27:57.935Z,1035.50
2018-03-29T12:28:57.937Z,1141.10
2018-03-29T12:29:57.930Z,656.40
2018-03-29T12:30:57.945Z,775.00
2018-03-29T12:31:57.929Z,1999.90
2018-03-29T12:32:57.927Z,1999.90
2018-03-29T12:33:57.929Z,1999.90
2018-03-29T12:34:57.923Z,1999.90
2018-03-29T12:35:57.922Z,1999.90
2018-03-29T12:36:57.920Z,1999.90
2018-03-29T12:37:57.918Z,355.60
2018-03-29T12:38:57.921Z,728.20
2018-03-29T12:39:57.916Z,1119.30
2018-03-29T12:40:57.917Z,1999.90
2018-03-29T12:41:58.316Z,1999.90
2018-03-29T12:46:18.708Z,1999.90
2018-03-29T12:48:58.561Z,1999.90
2018-03-29T12:49:58.557Z,1999.90
2018-03-29T12:50:58.557Z,1999.90
2018-03-29T12:56:47.600Z,1999.90
2018-03-29T12:57:47.597Z,1999.90
2018-03-29T13:04:14.349Z,1999.90
2018-03-29T13:05:14.047Z,1999.90
2018-03-29T13:06:14.046Z,1999.90
2018-03-29T13:07:14.043Z,1999.90
2018-03-29T13:08:14.046Z,1981.30
2018-03-29T13:09:14.039Z,721.90
2018-03-29T13:10:14.289Z,767.20
2018-03-29T13:11:14.035Z,1888.80
2018-03-29T13:12:14.031Z,718.70
2018-03-29T13:13:14.031Z,1999.90
2018-03-29T13:14:14.031Z,1999.90
2018-03-29T13:15:14.027Z,1082.40
2018-03-29T13:16:14.021Z,1999.90
2018-03-29T13:17:14.020Z,1999.90
2018-03-29T13:18:14.016Z,1064.60
2018-03-29T13:19:14.014Z,1099.30
2018-03-29T13:20:14.022Z,1199.90
2018-03-29T13:21:14.006Z,1241.70
2018-03-29T13:22:14.004Z,1407.30
2018-03-29T13:23:13.999Z,1999.90
2018-03-29T13:24:13.999Z,1285.30
2018-03-29T13:25:14.016Z,1275.40
2018-03-29T13:26:13.989Z,1585.70
2018-03-29T13:27:13.986Z,1999.90
2018-03-29T13:28:13.983Z,1999.90
2018-03-29T13:29:13.979Z,1999.90
2018-03-29T13:30:13.975Z,1999.90
2018-03-29T13:31:13.971Z,1999.90
2018-03-29T13:32:13.967Z,1999.90
2018-03-29T13:34:56.371Z,1999.90
2018-03-29T13:36:53.807Z,1999.90
2018-03-29T13:37:53.807Z,1999.90
2018-03-29T13:38:53.797Z,1999.90
2018-03-29T13:39:53.794Z,1999.90
2018-03-29T13:40:53.794Z,1999.90
2018-03-29T13:41:53.782Z,1999.90
2018-03-29T13:45:19.466Z,1999.90
2018-03-29T13:47:02.180Z,1999.90
2018-03-29T13:48:49.289Z,1999.90
2018-03-29T13:49:49.283Z,1999.90
2018-03-29T13:50:49.279Z,1999.90
2018-03-29T13:51:49.276Z,1999.90
2018-03-29T13:52:49.576Z,1999.90
2018-03-29T13:53:49.268Z,1999.90
2018-03-29T13:54:49.268Z,1999.90
2018-03-29T13:55:49.265Z,1999.90
2018-03-29T13:56:49.258Z,1999.90
2018-03-29T13:57:52.734Z,1999.90
2018-03-29T13:58:49.251Z,1999.90
2018-03-29T13:59:49.248Z,1999.90
2018-03-29T14:00:49.248Z,1999.90
2018-03-29T14:01:49.242Z,1999.90
2018-03-29T14:02:49.239Z,1999.90
2018-03-29T14:03:49.237Z,1999.90
2018-03-29T14:04:49.235Z,1999.90
2018-03-29T14:05:49.230Z,1999.90
2018-03-29T14:06:49.228Z,1999.90
2018-03-29T14:07:49.225Z,1999.90
2018-03-29T14:08:49.223Z,1999.90
2018-03-29T14:09:49.220Z,1999.90
2018-03-29T14:10:49.218Z,1999.90
2018-03-29T14:11:49.216Z,1999.90
2018-03-29T14:12:49.214Z,1999.90
2018-03-29T14:13:49.211Z,1999.90
2018-03-29T14:14:49.245Z,1999.90
2018-03-29T14:15:49.306Z,1999.90
2018-03-29T14:16:49.205Z,1999.90
2018-03-29T14:17:49.226Z,1999.90
2018-03-29T14:18:49.199Z,1999.90
2018-03-29T14:19:49.199Z,1999.90
2018-03-29T14:20:49.197Z,1999.90
2018-03-29T14:21:49.195Z,1999.90
2018-03-29T14:22:49.192Z,1999.90
2018-03-29T14:23:49.190Z,1999.90
2018-03-29T14:24:49.191Z,1999.90
2018-03-29T14:25:49.186Z,1999.90
2018-03-29T14:26:49.185Z,1999.90
2018-03-29T14:27:49.182Z,1999.90
2018-03-29T14:28:49.181Z,1999.90
2018-03-29T14:29:49.180Z,1999.90
2018-03-29T14:30:49.180Z,1999.90
2018-03-29T14:31:49.174Z,1999.90
2018-03-29T14:32:49.174Z,1999.90
2018-03-29T14:33:49.169Z,1999.90
2018-03-29T14:34:49.168Z,1999.90
2018-03-29T14:35:49.210Z,1999.90
2018-03-29T14:36:49.165Z,1999.90
2018-03-29T14:37:49.162Z,1999.90
2018-03-29T14:38:49.161Z,1999.90
2018-03-29T14:39:49.159Z,1999.90
2018-03-29T14:40:49.157Z,1999.90
2018-03-29T14:41:49.155Z,1999.90
2018-03-29T14:42:49.155Z,1999.90
2018-03-29T14:43:49.152Z,1999.90
2018-03-29T14:44:49.149Z,1999.90
2018-03-29T14:45:49.398Z,1999.90
2018-03-29T14:46:49.189Z,1999.90
2018-03-29T14:47:49.143Z,1999.90
2018-03-29T14:48:49.141Z,1999.90
2018-03-29T14:49:49.139Z,1999.90
2018-03-29T14:50:49.136Z,1999.90
2018-03-29T14:51:49.586Z,77.20
2018-03-29T14:52:49.132Z,1999.90
2018-03-29T14:53:49.129Z,1999.90
2018-03-29T14:54:49.127Z,1999.90
2018-03-29T14:55:49.126Z,1999.90
2018-03-29T14:56:49.121Z,1999.90
2018-03-29T14:57:49.433Z,1999.90
2018-03-29T14:58:49.119Z,1999.90
2018-03-29T14:59:49.112Z,1999.90
2018-03-29T15:00:49.108Z,1999.90
2018-03-29T15:01:49.109Z,1999.90
2018-03-29T15:02:49.100Z,1999.90
2018-03-29T15:03:49.097Z,1999.90
2018-03-29T15:04:49.094Z,1999.90
2018-03-29T15:05:49.091Z,1999.90
2018-03-29T15:06:49.088Z,1999.90
2018-03-29T15:07:49.091Z,1999.90
2018-03-29T15:08:49.080Z,1999.90
2018-03-29T15:09:49.075Z,1999.90
2018-03-29T15:10:49.072Z,1999.90
2018-03-29T15:11:49.071Z,1999.90
2018-03-29T15:12:49.067Z,1999.90
2018-03-29T15:13:49.073Z,1999.90
2018-03-29T15:14:49.058Z,1999.90
2018-03-29T15:15:49.052Z,1999.90
2018-03-29T15:16:49.048Z,1999.90
2018-03-29T15:17:49.042Z,1999.90
2018-03-29T15:18:49.044Z,1999.90
2018-03-29T15:19:49.039Z,1999.90
2018-03-29T15:20:49.030Z,13.60
2018-03-29T15:21:49.058Z,6.90
2018-03-29T15:22:49.019Z,5.10
2018-03-29T15:23:49.014Z,4.50
2018-03-29T15:24:49.011Z,4.70
2018-03-29T15:25:49.009Z,4.30
2018-03-29T15:26:49.001Z,4.40
2018-03-29T15:27:48.999Z,4.60
2018-03-29T15:28:48.992Z,156.50
2018-03-29T15:29:48.986Z,4.10
2018-03-29T15:30:48.982Z,4.90
2018-03-29T15:31:48.978Z,177.30
2018-03-29T15:32:48.971Z,5.20
2018-03-29T15:33:48.966Z,5.30
2018-03-29T15:34:48.961Z,5.30
2018-03-29T15:35:48.956Z,5.40
2018-03-29T15:36:48.951Z,5.10
2018-03-29T15:37:48.946Z,4.80
2018-03-29T15:38:48.941Z,5.50
2018-03-29T15:39:48.936Z,5.00
2018-03-29T15:40:48.930Z,5.40
2018-03-29T15:41:48.925Z,82.10
2018-03-29T15:42:48.920Z,49.10
2018-03-29T15:43:48.920Z,1053.30
2018-03-29T15:44:48.909Z,5.50
2018-03-29T15:45:49.154Z,6.20
2018-03-29T15:46:48.898Z,6.30
2018-03-29T15:47:48.892Z,5.30
2018-03-29T15:48:48.885Z,6.40
2018-03-29T15:49:48.882Z,6.70
2018-03-29T15:50:48.879Z,7.00
2018-03-29T15:51:48.869Z,7.60
2018-03-29T15:52:48.864Z,8.50
2018-03-29T15:53:48.857Z,9.20
2018-03-29T15:54:48.850Z,7.40
2018-03-29T15:55:48.847Z,6.70
2018-03-29T15:56:48.842Z,7.70
2018-03-29T15:57:48.834Z,15.00
2018-03-29T15:58:48.827Z,9.30
2018-03-29T15:59:48.822Z,13.00
2018-03-29T16:00:48.817Z,20.20
2018-03-29T16:01:48.810Z,11.80
2018-03-29T16:02:48.804Z,10.20
2018-03-29T16:03:48.798Z,16.20
2018-03-29T16:04:48.792Z,9.10
2018-03-29T16:05:48.786Z,8.60
2018-03-29T16:06:48.780Z,8.70
2018-03-29T16:07:48.773Z,7.70
2018-03-29T16:08:48.770Z,50.20
2018-03-29T16:09:48.765Z,108.40
2018-03-29T16:10:48.756Z,5.30
2018-03-29T16:11:48.752Z,39.30
2018-03-29T16:12:48.744Z,4.00
2018-03-29T16:13:48.735Z,5.00
2018-03-29T16:14:48.731Z,271.00
2018-03-29T16:15:48.725Z,5.50
2018-03-29T16:16:48.719Z,5.50
2018-03-29T16:17:48.714Z,3.60
2018-03-29T16:18:48.707Z,2.10
2018-03-29T16:19:48.700Z,2.20
2018-03-29T16:20:48.695Z,2.40
2018-03-29T16:21:48.687Z,2.10
2018-03-29T16:22:48.681Z,2.20
2018-03-29T16:23:48.675Z,2.20
2018-03-29T16:24:48.669Z,2.30
2018-03-29T16:25:48.666Z,2.10
2018-03-29T16:26:48.655Z,2.30
2018-03-29T16:27:48.649Z,2.40
2018-03-29T16:28:48.643Z,2.30
2018-03-29T16:29:48.636Z,2.40
2018-03-29T16:30:48.630Z,2.60